QTR78 LGKO-LIRF
Flight info
| Callsign | QTR78 |
|---|---|
| Flight time | N/A |
| Altitude | 40000 |
| Route | KOPAR UL995 TIGRA DCT MOKTO DCT EKTOL DCT AMSOR DCT LAT |
| Aircraft | B77L/H-SDE1E2E3FGHIJ2J3J4J5M1RWXY/S |
Departure
| Time | 2026-04-30 15:04 |
|---|---|
| Airport | Kos International Airport "Ippokratis" (LGKO) |
Arrival
| Time | N/A |
|---|---|
| Airport | Rome–Fiumicino Leonardo da Vinci International Airport (LIRF) |
| Time | Latitude | Longitude | Altitude | Speed | Heading |
|---|---|---|---|---|---|
| 2026-04-30 14:31 | 36.79867 | 27.09150 | 423 ft | 0 kts | 89° |
| 2026-04-30 14:49 | 36.79867 | 27.09139 | 423 ft | 3 kts | 89° |
| 2026-04-30 14:49 | 36.79867 | 27.09109 | 423 ft | 3 kts | 89° |
| 2026-04-30 14:49 | 36.79867 | 27.09078 | 423 ft | 3 kts | 89° |
| 2026-04-30 14:49 | 36.79866 | 27.09048 | 423 ft | 3 kts | 89° |
| 2026-04-30 14:50 | 36.79872 | 27.08994 | 423 ft | 3 kts | 138° |
| 2026-04-30 14:50 | 36.79892 | 27.08985 | 423 ft | 4 kts | 179° |
| 2026-04-30 14:51 | 36.79927 | 27.08983 | 423 ft | 0 kts | 178° |
| 2026-04-30 14:58 | 36.79906 | 27.08984 | 423 ft | 8 kts | 178° |
| 2026-04-30 14:58 | 36.79590 | 27.09015 | 423 ft | 17 kts | 149° |
| 2026-04-30 14:59 | 36.79401 | 27.09158 | 423 ft | 15 kts | 144° |
| 2026-04-30 15:00 | 36.79064 | 27.09423 | 423 ft | 22 kts | 147° |
| 2026-04-30 15:00 | 36.78827 | 27.09607 | 423 ft | 19 kts | 147° |
| 2026-04-30 15:01 | 36.78650 | 27.09751 | 423 ft | 9 kts | 148° |
| 2026-04-30 15:01 | 36.78623 | 27.09775 | 423 ft | 5 kts | 129° |
| 2026-04-30 15:01 | 36.78572 | 27.09827 | 423 ft | 1 kts | 214° |
| 2026-04-30 15:02 | 36.78566 | 27.09816 | 423 ft | 3 kts | 249° |
| 2026-04-30 15:02 | 36.78575 | 27.09793 | 423 ft | 5 kts | 327° |
| 2026-04-30 15:03 | 36.78595 | 27.09784 | 423 ft | 0 kts | 346° |
| 2026-04-30 15:03 | 36.78691 | 27.09723 | 423 ft | 31 kts | 327° |
| 2026-04-30 15:04 | 36.80110 | 27.08617 | 515 ft | 218 kts | 327° |
| 2026-04-30 15:04 | 36.82625 | 27.04525 | 1322 ft | 200 kts | 263° |
| 2026-04-30 15:05 | 36.81714 | 26.99641 | 1447 ft | 188 kts | 259° |
| 2026-04-30 15:06 | 36.81029 | 26.96402 | 1283 ft | 220 kts | 255° |
| 2026-04-30 15:06 | 36.81093 | 26.91918 | 2307 ft | 284 kts | 277° |
| 2026-04-30 15:07 | 36.80976 | 26.87090 | 4958 ft | 272 kts | 262° |
| 2026-04-30 15:07 | 36.81254 | 26.83078 | 6853 ft | 202 kts | 278° |
| 2026-04-30 15:08 | 36.81479 | 26.79501 | 7043 ft | 225 kts | 271° |
| 2026-04-30 15:08 | 36.83360 | 26.73339 | 6552 ft | 296 kts | 284° |
| 2026-04-30 15:09 | 36.84146 | 26.68197 | 9538 ft | 288 kts | 280° |
| 2026-04-30 15:09 | 36.85182 | 26.63831 | 13453 ft | 238 kts | 288° |